sensor_id;sensor_type;location;lat;lon;timestamp;temperature;humidity
33271;DHT22;53180;51.344;6.152;2023-04-24T00:00:19;10.50;82.40
33271;DHT22;53180;51.344;6.152;2023-04-24T00:02:48;10.50;82.40
33271;DHT22;53180;51.344;6.152;2023-04-24T00:05:17;10.50;82.60
33271;DHT22;53180;51.344;6.152;2023-04-24T00:07:46;10.40;81.90
33271;DHT22;53180;51.344;6.152;2023-04-24T00:10:14;10.40;81.90
33271;DHT22;53180;51.344;6.152;2023-04-24T00:12:43;10.40;81.70
33271;DHT22;53180;51.344;6.152;2023-04-24T00:15:11;10.40;81.30
33271;DHT22;53180;51.344;6.152;2023-04-24T00:17:40;10.30;81.30
33271;DHT22;53180;51.344;6.152;2023-04-24T00:20:10;10.30;81.30
33271;DHT22;53180;51.344;6.152;2023-04-24T00:22:40;10.20;81.10
33271;DHT22;53180;51.344;6.152;2023-04-24T00:25:08;10.20;81.50
33271;DHT22;53180;51.344;6.152;2023-04-24T00:27:37;10.20;81.40
33271;DHT22;53180;51.344;6.152;2023-04-24T00:30:06;10.20;81.50
33271;DHT22;53180;51.344;6.152;2023-04-24T00:32:35;10.20;81.70
33271;DHT22;53180;51.344;6.152;2023-04-24T00:35:05;10.20;81.50
33271;DHT22;53180;51.344;6.152;2023-04-24T00:37:35;10.20;81.20
33271;DHT22;53180;51.344;6.152;2023-04-24T00:40:05;10.20;81.30
33271;DHT22;53180;51.344;6.152;2023-04-24T00:42:34;10.10;81.40
33271;DHT22;53180;51.344;6.152;2023-04-24T00:45:03;10.10;81.10
33271;DHT22;53180;51.344;6.152;2023-04-24T00:47:32;10.10;81.20
33271;DHT22;53180;51.344;6.152;2023-04-24T00:50:02;10.10;81.30
33271;DHT22;53180;51.344;6.152;2023-04-24T00:52:30;10.00;81.40
33271;DHT22;53180;51.344;6.152;2023-04-24T00:55:01;10.10;81.20
33271;DHT22;53180;51.344;6.152;2023-04-24T00:57:29;10.00;81.40
33271;DHT22;53180;51.344;6.152;2023-04-24T00:59:58;10.00;81.40
33271;DHT22;53180;51.344;6.152;2023-04-24T01:02:26;10.00;81.20
33271;DHT22;53180;51.344;6.152;2023-04-24T01:04:56;10.00;81.00
33271;DHT22;53180;51.344;6.152;2023-04-24T01:07:25;10.00;81.20
33271;DHT22;53180;51.344;6.152;2023-04-24T01:09:53;10.00;81.30
33271;DHT22;53180;51.344;6.152;2023-04-24T01:12:23;10.00;81.30
33271;DHT22;53180;51.344;6.152;2023-04-24T01:14:52;9.90;81.20
33271;DHT22;53180;51.344;6.152;2023-04-24T01:17:20;9.90;81.30
33271;DHT22;53180;51.344;6.152;2023-04-24T01:19:48;10.00;81.40
33271;DHT22;53180;51.344;6.152;2023-04-24T01:22:22;9.90;81.30
33271;DHT22;53180;51.344;6.152;2023-04-24T01:24:50;9.90;81.30
33271;DHT22;53180;51.344;6.152;2023-04-24T01:27:20;9.90;81.40
33271;DHT22;53180;51.344;6.152;2023-04-24T01:29:48;9.90;81.50
33271;DHT22;53180;51.344;6.152;2023-04-24T01:32:18;9.90;81.50
33271;DHT22;53180;51.344;6.152;2023-04-24T01:34:48;9.90;81.40
33271;DHT22;53180;51.344;6.152;2023-04-24T01:37:17;9.90;81.60
33271;DHT22;53180;51.344;6.152;2023-04-24T01:39:46;9.90;81.90
33271;DHT22;53180;51.344;6.152;2023-04-24T01:42:15;9.90;82.00
33271;DHT22;53180;51.344;6.152;2023-04-24T01:44:44;9.90;81.70
33271;DHT22;53180;51.344;6.152;2023-04-24T01:47:13;9.90;82.00
33271;DHT22;53180;51.344;6.152;2023-04-24T01:49:41;9.90;81.90
33271;DHT22;53180;51.344;6.152;2023-04-24T01:52:10;9.90;82.10
33271;DHT22;53180;51.344;6.152;2023-04-24T01:54:39;9.90;82.10
33271;DHT22;53180;51.344;6.152;2023-04-24T01:57:08;9.90;82.20
33271;DHT22;53180;51.344;6.152;2023-04-24T01:59:37;9.90;82.30
33271;DHT22;53180;51.344;6.152;2023-04-24T02:02:06;9.90;82.00
33271;DHT22;53180;51.344;6.152;2023-04-24T02:04:35;9.90;82.20
33271;DHT22;53180;51.344;6.152;2023-04-24T02:07:04;9.90;82.10
33271;DHT22;53180;51.344;6.152;2023-04-24T02:09:33;9.90;82.00
33271;DHT22;53180;51.344;6.152;2023-04-24T02:12:01;9.90;82.20
33271;DHT22;53180;51.344;6.152;2023-04-24T02:14:31;9.90;82.10
33271;DHT22;53180;51.344;6.152;2023-04-24T02:16:59;10.00;82.20
33271;DHT22;53180;51.344;6.152;2023-04-24T02:19:27;9.90;82.00
33271;DHT22;53180;51.344;6.152;2023-04-24T02:21:56;9.90;82.20
33271;DHT22;53180;51.344;6.152;2023-04-24T02:24:24;9.90;82.10
33271;DHT22;53180;51.344;6.152;2023-04-24T02:26:52;9.90;82.20
33271;DHT22;53180;51.344;6.152;2023-04-24T02:29:21;9.90;82.10
33271;DHT22;53180;51.344;6.152;2023-04-24T02:31:51;9.90;82.50
33271;DHT22;53180;51.344;6.152;2023-04-24T02:34:19;9.90;82.10
33271;DHT22;53180;51.344;6.152;2023-04-24T02:36:47;9.90;82.10
33271;DHT22;53180;51.344;6.152;2023-04-24T02:39:16;9.90;82.20
33271;DHT22;53180;51.344;6.152;2023-04-24T02:41:45;10.00;82.30
33271;DHT22;53180;51.344;6.152;2023-04-24T02:44:14;9.90;82.20
33271;DHT22;53180;51.344;6.152;2023-04-24T02:46:43;9.90;82.20
33271;DHT22;53180;51.344;6.152;2023-04-24T02:49:13;9.90;82.40
33271;DHT22;53180;51.344;6.152;2023-04-24T02:51:42;9.90;82.40
33271;DHT22;53180;51.344;6.152;2023-04-24T02:54:10;9.90;82.40
33271;DHT22;53180;51.344;6.152;2023-04-24T02:56:38;9.90;82.40
33271;DHT22;53180;51.344;6.152;2023-04-24T02:59:07;9.90;82.60
33271;DHT22;53180;51.344;6.152;2023-04-24T03:01:35;9.90;82.50
33271;DHT22;53180;51.344;6.152;2023-04-24T03:04:04;9.90;82.50
33271;DHT22;53180;51.344;6.152;2023-04-24T03:06:34;9.90;82.30
33271;DHT22;53180;51.344;6.152;2023-04-24T03:09:03;9.80;82.30
33271;DHT22;53180;51.344;6.152;2023-04-24T03:11:31;9.90;82.20
33271;DHT22;53180;51.344;6.152;2023-04-24T03:14:00;9.90;82.20
33271;DHT22;53180;51.344;6.152;2023-04-24T03:16:28;9.90;82.10
33271;DHT22;53180;51.344;6.152;2023-04-24T03:18:56;9.90;82.40
33271;DHT22;53180;51.344;6.152;2023-04-24T03:21:25;9.90;82.20
33271;DHT22;53180;51.344;6.152;2023-04-24T04:28:45;9.50;82.20
33271;DHT22;53180;51.344;6.152;2023-04-24T04:31:14;9.50;81.50
33271;DHT22;53180;51.344;6.152;2023-04-24T04:33:42;9.50;81.70
33271;DHT22;53180;51.344;6.152;2023-04-24T04:36:10;9.50;81.80
33271;DHT22;53180;51.344;6.152;2023-04-24T04:38:39;9.50;81.80
33271;DHT22;53180;51.344;6.152;2023-04-24T04:41:08;9.40;81.90
33271;DHT22;53180;51.344;6.152;2023-04-24T04:43:37;9.40;82.30
33271;DHT22;53180;51.344;6.152;2023-04-24T04:46:07;9.30;82.80
33271;DHT22;53180;51.344;6.152;2023-04-24T04:48:37;9.40;83.10
33271;DHT22;53180;51.344;6.152;2023-04-24T04:51:06;9.40;83.30
33271;DHT22;53180;51.344;6.152;2023-04-24T04:53:34;9.40;83.40
33271;DHT22;53180;51.344;6.152;2023-04-24T04:56:03;9.40;83.40
33271;DHT22;53180;51.344;6.152;2023-04-24T04:58:31;9.30;83.60
33271;DHT22;53180;51.344;6.152;2023-04-24T05:00:59;9.30;83.70
33271;DHT22;53180;51.344;6.152;2023-04-24T05:03:29;9.30;83.70
33271;DHT22;53180;51.344;6.152;2023-04-24T05:05:57;9.30;83.90
33271;DHT22;53180;51.344;6.152;2023-04-24T05:08:26;9.30;83.90
33271;DHT22;53180;51.344;6.152;2023-04-24T05:10:55;9.30;84.10
33271;DHT22;53180;51.344;6.152;2023-04-24T05:13:23;9.40;84.40
33271;DHT22;53180;51.344;6.152;2023-04-24T05:16:05;9.30;84.80
33271;DHT22;53180;51.344;6.152;2023-04-24T05:18:35;9.30;85.00
33271;DHT22;53180;51.344;6.152;2023-04-24T05:21:03;9.20;85.50
33271;DHT22;53180;51.344;6.152;2023-04-24T05:23:31;9.20;86.00
33271;DHT22;53180;51.344;6.152;2023-04-24T05:26:00;9.20;86.10
33271;DHT22;53180;51.344;6.152;2023-04-24T05:28:28;9.20;86.50
33271;DHT22;53180;51.344;6.152;2023-04-24T05:30:56;9.10;86.40
33271;DHT22;53180;51.344;6.152;2023-04-24T05:33:26;9.10;86.50
33271;DHT22;53180;51.344;6.152;2023-04-24T05:35:55;9.10;86.90
33271;DHT22;53180;51.344;6.152;2023-04-24T05:38:24;9.00;86.70
33271;DHT22;53180;51.344;6.152;2023-04-24T05:40:52;9.00;87.00
33271;DHT22;53180;51.344;6.152;2023-04-24T05:43:20;9.00;87.10
33271;DHT22;53180;51.344;6.152;2023-04-24T05:45:49;8.90;87.10
33271;DHT22;53180;51.344;6.152;2023-04-24T05:48:17;9.00;87.60
33271;DHT22;53180;51.344;6.152;2023-04-24T05:50:45;8.90;87.60
33271;DHT22;53180;51.344;6.152;2023-04-24T05:53:16;8.90;87.80
33271;DHT22;53180;51.344;6.152;2023-04-24T05:55:44;8.90;88.10
33271;DHT22;53180;51.344;6.152;2023-04-24T05:58:13;8.90;88.30
33271;DHT22;53180;51.344;6.152;2023-04-24T06:00:41;8.90;88.30
33271;DHT22;53180;51.344;6.152;2023-04-24T06:03:10;8.90;88.50
33271;DHT22;53180;51.344;6.152;2023-04-24T06:05:38;8.90;88.60
33271;DHT22;53180;51.344;6.152;2023-04-24T06:08:06;8.80;88.50
33271;DHT22;53180;51.344;6.152;2023-04-24T06:10:36;8.90;88.80
33271;DHT22;53180;51.344;6.152;2023-04-24T06:13:04;8.90;88.80
33271;DHT22;53180;51.344;6.152;2023-04-24T06:15:33;8.90;88.80
33271;DHT22;53180;51.344;6.152;2023-04-24T06:18:02;8.90;88.90
33271;DHT22;53180;51.344;6.152;2023-04-24T06:20:30;8.90;88.90
33271;DHT22;53180;51.344;6.152;2023-04-24T06:22:58;9.00;88.90
33271;DHT22;53180;51.344;6.152;2023-04-24T06:25:27;8.90;89.10
33271;DHT22;53180;51.344;6.152;2023-04-24T06:27:57;9.00;89.20
33271;DHT22;53180;51.344;6.152;2023-04-24T06:30:25;8.90;88.90
33271;DHT22;53180;51.344;6.152;2023-04-24T06:32:56;8.90;88.90
33271;DHT22;53180;51.344;6.152;2023-04-24T06:35:44;8.80;88.80
33271;DHT22;53180;51.344;6.152;2023-04-24T06:38:13;8.70;88.70
33271;DHT22;53180;51.344;6.152;2023-04-24T06:40:42;8.70;89.00
33271;DHT22;53180;51.344;6.152;2023-04-24T06:43:12;8.70;89.10
33271;DHT22;53180;51.344;6.152;2023-04-24T06:45:41;8.70;89.30
33271;DHT22;53180;51.344;6.152;2023-04-24T06:48:11;8.60;89.20
33271;DHT22;53180;51.344;6.152;2023-04-24T06:50:39;8.50;89.40
33271;DHT22;53180;51.344;6.152;2023-04-24T06:53:07;8.50;89.60
33271;DHT22;53180;51.344;6.152;2023-04-24T06:55:37;8.40;89.70
33271;DHT22;53180;51.344;6.152;2023-04-24T06:58:06;8.40;89.90
33271;DHT22;53180;51.344;6.152;2023-04-24T07:00:36;8.30;89.80
33271;DHT22;53180;51.344;6.152;2023-04-24T07:03:04;8.20;89.80
33271;DHT22;53180;51.344;6.152;2023-04-24T07:05:33;8.20;90.10
33271;DHT22;53180;51.344;6.152;2023-04-24T07:08:01;8.20;90.20
33271;DHT22;53180;51.344;6.152;2023-04-24T07:10:30;8.10;90.30
33271;DHT22;53180;51.344;6.152;2023-04-24T07:13:02;8.10;90.50
33271;DHT22;53180;51.344;6.152;2023-04-24T07:15:30;8.10;90.50
33271;DHT22;53180;51.344;6.152;2023-04-24T07:18:00;8.10;90.60
33271;DHT22;53180;51.344;6.152;2023-04-24T07:20:31;8.10;90.90
33271;DHT22;53180;51.344;6.152;2023-04-24T07:23:00;8.10;91.20
33271;DHT22;53180;51.344;6.152;2023-04-24T07:25:29;8.10;91.30
33271;DHT22;53180;51.344;6.152;2023-04-24T07:27:58;8.10;91.60
33271;DHT22;53180;51.344;6.152;2023-04-24T07:30:26;8.10;91.80
33271;DHT22;53180;51.344;6.152;2023-04-24T07:32:55;8.00;92.00
33271;DHT22;53180;51.344;6.152;2023-04-24T07:35:25;8.10;92.20
33271;DHT22;53180;51.344;6.152;2023-04-24T07:37:54;8.10;92.50
33271;DHT22;53180;51.344;6.152;2023-04-24T07:40:22;8.10;92.70
33271;DHT22;53180;51.344;6.152;2023-04-24T07:42:50;8.20;92.80
33271;DHT22;53180;51.344;6.152;2023-04-24T07:45:19;8.20;93.00
33271;DHT22;53180;51.344;6.152;2023-04-24T07:47:47;8.20;93.10
33271;DHT22;53180;51.344;6.152;2023-04-24T07:50:15;8.20;93.20
33271;DHT22;53180;51.344;6.152;2023-04-24T07:52:45;8.30;93.40
33271;DHT22;53180;51.344;6.152;2023-04-24T07:55:14;8.30;93.50
33271;DHT22;53180;51.344;6.152;2023-04-24T07:57:42;8.30;93.50
33271;DHT22;53180;51.344;6.152;2023-04-24T08:00:11;8.30;93.60
33271;DHT22;53180;51.344;6.152;2023-04-24T08:02:40;8.30;93.70
33271;DHT22;53180;51.344;6.152;2023-04-24T08:05:09;8.30;93.70
33271;DHT22;53180;51.344;6.152;2023-04-24T08:07:38;8.30;93.70
33271;DHT22;53180;51.344;6.152;2023-04-24T08:10:10;8.20;93.70
33271;DHT22;53180;51.344;6.152;2023-04-24T08:12:38;8.30;93.70
33271;DHT22;53180;51.344;6.152;2023-04-24T08:15:07;8.20;93.70
33271;DHT22;53180;51.344;6.152;2023-04-24T08:17:36;8.20;93.70
33271;DHT22;53180;51.344;6.152;2023-04-24T08:20:06;8.20;93.50
33271;DHT22;53180;51.344;6.152;2023-04-24T08:22:40;8.20;93.60
33271;DHT22;53180;51.344;6.152;2023-04-24T08:25:10;8.20;93.60
33271;DHT22;53180;51.344;6.152;2023-04-24T08:27:38;8.00;93.60
33271;DHT22;53180;51.344;6.152;2023-04-24T08:30:07;8.10;93.80
33271;DHT22;53180;51.344;6.152;2023-04-24T08:32:36;8.10;93.90
33271;DHT22;53180;51.344;6.152;2023-04-24T08:35:05;8.10;93.90
33271;DHT22;53180;51.344;6.152;2023-04-24T08:37:36;8.10;94.00
33271;DHT22;53180;51.344;6.152;2023-04-24T08:40:11;8.10;94.10
33271;DHT22;53180;51.344;6.152;2023-04-24T08:42:43;8.10;94.10
33271;DHT22;53180;51.344;6.152;2023-04-24T08:45:13;8.10;94.20
33271;DHT22;53180;51.344;6.152;2023-04-24T08:47:41;8.10;94.10
33271;DHT22;53180;51.344;6.152;2023-04-24T08:50:11;8.00;94.00
33271;DHT22;53180;51.344;6.152;2023-04-24T08:52:40;8.00;94.10
33271;DHT22;53180;51.344;6.152;2023-04-24T08:55:10;8.00;94.00
33271;DHT22;53180;51.344;6.152;2023-04-24T08:57:40;8.00;94.10
33271;DHT22;53180;51.344;6.152;2023-04-24T09:00:11;8.10;94.20
33271;DHT22;53180;51.344;6.152;2023-04-24T09:02:42;8.10;94.20
33271;DHT22;53180;51.344;6.152;2023-04-24T09:05:12;8.10;94.30
33271;DHT22;53180;51.344;6.152;2023-04-24T09:07:44;8.10;94.30
33271;DHT22;53180;51.344;6.152;2023-04-24T09:10:12;8.10;94.40
33271;DHT22;53180;51.344;6.152;2023-04-24T09:12:44;8.20;94.40
33271;DHT22;53180;51.344;6.152;2023-04-24T09:15:13;8.20;94.40
33271;DHT22;53180;51.344;6.152;2023-04-24T09:17:42;8.20;94.40
33271;DHT22;53180;51.344;6.152;2023-04-24T09:20:11;8.20;94.40
33271;DHT22;53180;51.344;6.152;2023-04-24T09:22:39;8.20;94.50
33271;DHT22;53180;51.344;6.152;2023-04-24T09:25:09;8.20;94.50
33271;DHT22;53180;51.344;6.152;2023-04-24T09:27:43;8.30;94.60
33271;DHT22;53180;51.344;6.152;2023-04-24T09:30:13;8.30;94.60
33271;DHT22;53180;51.344;6.152;2023-04-24T09:32:42;8.40;94.60
33271;DHT22;53180;51.344;6.152;2023-04-24T09:35:12;8.40;94.70
33271;DHT22;53180;51.344;6.152;2023-04-24T09:37:41;8.40;94.70
33271;DHT22;53180;51.344;6.152;2023-04-24T09:40:15;8.40;94.60
33271;DHT22;53180;51.344;6.152;2023-04-24T09:42:46;8.40;94.60
33271;DHT22;53180;51.344;6.152;2023-04-24T09:45:19;8.40;94.60
33271;DHT22;53180;51.344;6.152;2023-04-24T09:47:51;8.40;94.60
33271;DHT22;53180;51.344;6.152;2023-04-24T09:50:21;8.50;94.60
33271;DHT22;53180;51.344;6.152;2023-04-24T09:52:57;8.50;94.60
33271;DHT22;53180;51.344;6.152;2023-04-24T09:55:26;8.50;94.50
33271;DHT22;53180;51.344;6.152;2023-04-24T09:57:57;8.50;94.40
33271;DHT22;53180;51.344;6.152;2023-04-24T10:00:28;8.40;94.20
33271;DHT22;53180;51.344;6.152;2023-04-24T10:02:58;8.50;94.20
33271;DHT22;53180;51.344;6.152;2023-04-24T10:05:28;8.40;94.20
33271;DHT22;53180;51.344;6.152;2023-04-24T10:08:01;8.30;94.00
33271;DHT22;53180;51.344;6.152;2023-04-24T10:10:32;8.30;93.90
33271;DHT22;53180;51.344;6.152;2023-04-24T10:13:03;8.30;93.90
33271;DHT22;53180;51.344;6.152;2023-04-24T10:15:32;8.30;94.00
33271;DHT22;53180;51.344;6.152;2023-04-24T10:18:00;8.30;94.00
33271;DHT22;53180;51.344;6.152;2023-04-24T10:20:30;8.40;93.90
33271;DHT22;53180;51.344;6.152;2023-04-24T10:22:59;8.40;94.00
33271;DHT22;53180;51.344;6.152;2023-04-24T10:25:29;8.50;94.00
33271;DHT22;53180;51.344;6.152;2023-04-24T10:28:02;8.70;93.90
33271;DHT22;53180;51.344;6.152;2023-04-24T10:30:32;8.70;94.00
33271;DHT22;53180;51.344;6.152;2023-04-24T10:33:03;8.80;94.00
33271;DHT22;53180;51.344;6.152;2023-04-24T10:35:34;8.80;93.80
33271;DHT22;53180;51.344;6.152;2023-04-24T10:38:07;8.70;93.20
33271;DHT22;53180;51.344;6.152;2023-04-24T10:40:37;8.60;93.20
33271;DHT22;53180;51.344;6.152;2023-04-24T10:43:08;8.60;93.30
33271;DHT22;53180;51.344;6.152;2023-04-24T10:45:38;8.50;93.20
33271;DHT22;53180;51.344;6.152;2023-04-24T10:48:08;8.40;92.70
33271;DHT22;53180;51.344;6.152;2023-04-24T10:50:44;8.40;92.90
33271;DHT22;53180;51.344;6.152;2023-04-24T10:53:16;8.30;92.30
33271;DHT22;53180;51.344;6.152;2023-04-24T10:55:46;8.40;92.70
33271;DHT22;53180;51.344;6.152;2023-04-24T10:58:21;8.50;93.00
33271;DHT22;53180;51.344;6.152;2023-04-24T11:00:56;8.70;93.30
33271;DHT22;53180;51.344;6.152;2023-04-24T11:03:27;8.90;93.40
33271;DHT22;53180;51.344;6.152;2023-04-24T11:05:59;8.90;93.00
33271;DHT22;53180;51.344;6.152;2023-04-24T11:08:30;9.00;92.70
33271;DHT22;53180;51.344;6.152;2023-04-24T11:11:02;9.00;92.70
33271;DHT22;53180;51.344;6.152;2023-04-24T11:16:44;8.90;91.00
33271;DHT22;53180;51.344;6.152;2023-04-24T11:19:22;8.90;90.70
33271;DHT22;53180;51.344;6.152;2023-04-24T11:21:58;8.90;91.00
33271;DHT22;53180;51.344;6.152;2023-04-24T11:24:30;8.90;90.90
33271;DHT22;53180;51.344;6.152;2023-04-24T11:27:03;8.90;90.10
33271;DHT22;53180;51.344;6.152;2023-04-24T11:29:46;9.00;89.50
33271;DHT22;53180;51.344;6.152;2023-04-24T11:32:19;8.90;90.00
33271;DHT22;53180;51.344;6.152;2023-04-24T11:34:58;8.90;88.60
33271;DHT22;53180;51.344;6.152;2023-04-24T11:37:29;8.80;89.40
33271;DHT22;53180;51.344;6.152;2023-04-24T11:39:58;8.80;88.50
33271;DHT22;53180;51.344;6.152;2023-04-24T11:42:28;8.80;89.80
33271;DHT22;53180;51.344;6.152;2023-04-24T11:44:58;8.80;89.70
33271;DHT22;53180;51.344;6.152;2023-04-24T11:47:29;8.70;88.80
33271;DHT22;53180;51.344;6.152;2023-04-24T11:50:01;8.70;88.30
33271;DHT22;53180;51.344;6.152;2023-04-24T11:52:30;8.80;88.30
33271;DHT22;53180;51.344;6.152;2023-04-24T11:54:59;8.90;88.60
33271;DHT22;53180;51.344;6.152;2023-04-24T11:57:28;9.00;89.00
33271;DHT22;53180;51.344;6.152;2023-04-24T12:00:02;9.10;88.50
33271;DHT22;53180;51.344;6.152;2023-04-24T12:02:32;9.20;87.40
33271;DHT22;53180;51.344;6.152;2023-04-24T12:05:05;9.20;85.70
33271;DHT22;53180;51.344;6.152;2023-04-24T12:07:40;9.10;85.90
33271;DHT22;53180;51.344;6.152;2023-04-24T12:10:10;9.20;85.80
33271;DHT22;53180;51.344;6.152;2023-04-24T12:12:39;9.20;85.90
33271;DHT22;53180;51.344;6.152;2023-04-24T12:15:09;9.10;85.10
33271;DHT22;53180;51.344;6.152;2023-04-24T12:17:41;9.10;85.70
33271;DHT22;53180;51.344;6.152;2023-04-24T12:20:11;9.10;85.40
33271;DHT22;53180;51.344;6.152;2023-04-24T12:22:44;9.10;84.10
33271;DHT22;53180;51.344;6.152;2023-04-24T12:25:14;9.10;84.10
33271;DHT22;53180;51.344;6.152;2023-04-24T12:27:43;9.20;85.20
33271;DHT22;53180;51.344;6.152;2023-04-24T12:30:15;9.20;84.10
33271;DHT22;53180;51.344;6.152;2023-04-24T12:32:47;9.20;85.00
33271;DHT22;53180;51.344;6.152;2023-04-24T12:35:19;9.20;84.00
33271;DHT22;53180;51.344;6.152;2023-04-24T12:37:49;9.30;85.70
33271;DHT22;53180;51.344;6.152;2023-04-24T12:40:18;9.30;83.50
33271;DHT22;53180;51.344;6.152;2023-04-24T12:42:49;9.30;83.40
33271;DHT22;53180;51.344;6.152;2023-04-24T12:45:19;9.30;84.00
33271;DHT22;53180;51.344;6.152;2023-04-24T12:47:50;9.30;83.70
33271;DHT22;53180;51.344;6.152;2023-04-24T12:50:18;9.40;83.60
33271;DHT22;53180;51.344;6.152;2023-04-24T12:52:47;9.50;83.10
33271;DHT22;53180;51.344;6.152;2023-04-24T12:55:15;9.60;82.30
33271;DHT22;53180;51.344;6.152;2023-04-24T12:57:43;9.60;81.80
33271;DHT22;53180;51.344;6.152;2023-04-24T13:00:12;9.60;81.60
33271;DHT22;53180;51.344;6.152;2023-04-24T13:02:45;9.70;81.20
33271;DHT22;53180;51.344;6.152;2023-04-24T13:05:13;9.80;80.90
33271;DHT22;53180;51.344;6.152;2023-04-24T13:07:42;9.80;81.50
33271;DHT22;53180;51.344;6.152;2023-04-24T13:10:10;9.90;79.80
33271;DHT22;53180;51.344;6.152;2023-04-24T13:12:40;9.90;80.70
33271;DHT22;53180;51.344;6.152;2023-04-24T13:15:12;9.90;82.20
33271;DHT22;53180;51.344;6.152;2023-04-24T13:17:40;10.00;80.20
33271;DHT22;53180;51.344;6.152;2023-04-24T13:20:10;9.90;81.80
33271;DHT22;53180;51.344;6.152;2023-04-24T13:22:38;10.10;80.30
33271;DHT22;53180;51.344;6.152;2023-04-24T13:25:07;10.10;80.10
33271;DHT22;53180;51.344;6.152;2023-04-24T13:27:38;10.00;79.40
33271;DHT22;53180;51.344;6.152;2023-04-24T13:30:07;9.90;79.50
33271;DHT22;53180;51.344;6.152;2023-04-24T13:32:36;9.90;81.00
33271;DHT22;53180;51.344;6.152;2023-04-24T13:35:05;9.90;80.00
33271;DHT22;53180;51.344;6.152;2023-04-24T13:37:35;9.90;78.70
33271;DHT22;53180;51.344;6.152;2023-04-24T13:40:04;9.90;77.90
33271;DHT22;53180;51.344;6.152;2023-04-24T13:42:33;9.90;76.50
33271;DHT22;53180;51.344;6.152;2023-04-24T13:45:02;9.80;78.60
33271;DHT22;53180;51.344;6.152;2023-04-24T13:47:50;9.90;77.40
33271;DHT22;53180;51.344;6.152;2023-04-24T13:50:19;9.90;79.30
33271;DHT22;53180;51.344;6.152;2023-04-24T13:52:49;10.20;78.10
33271;DHT22;53180;51.344;6.152;2023-04-24T13:55:17;10.20;80.20
33271;DHT22;53180;51.344;6.152;2023-04-24T13:57:45;10.60;78.70
33271;DHT22;53180;51.344;6.152;2023-04-24T14:00:14;10.90;76.60
33271;DHT22;53180;51.344;6.152;2023-04-24T14:02:43;10.80;75.90
33271;DHT22;53180;51.344;6.152;2023-04-24T14:05:12;10.70;77.50
33271;DHT22;53180;51.344;6.152;2023-04-24T14:07:41;10.60;78.40
33271;DHT22;53180;51.344;6.152;2023-04-24T14:10:11;10.60;79.60
33271;DHT22;53180;51.344;6.152;2023-04-24T14:12:39;10.60;78.60
33271;DHT22;53180;51.344;6.152;2023-04-24T14:15:08;10.50;80.40
33271;DHT22;53180;51.344;6.152;2023-04-24T14:17:37;10.50;79.90
33271;DHT22;53180;51.344;6.152;2023-04-24T14:20:07;10.50;80.30
33271;DHT22;53180;51.344;6.152;2023-04-24T14:22:36;10.50;80.10
33271;DHT22;53180;51.344;6.152;2023-04-24T14:25:05;10.40;77.70
33271;DHT22;53180;51.344;6.152;2023-04-24T14:27:35;10.40;78.40
33271;DHT22;53180;51.344;6.152;2023-04-24T14:30:05;10.50;76.00
33271;DHT22;53180;51.344;6.152;2023-04-24T14:32:34;10.40;77.40
33271;DHT22;53180;51.344;6.152;2023-04-24T14:35:03;10.40;76.90
33271;DHT22;53180;51.344;6.152;2023-04-24T14:37:32;10.30;76.40
33271;DHT22;53180;51.344;6.152;2023-04-24T14:40:00;10.30;76.50
33271;DHT22;53180;51.344;6.152;2023-04-24T14:42:50;10.20;77.40
33271;DHT22;53180;51.344;6.152;2023-04-24T14:45:19;10.30;76.80
33271;DHT22;53180;51.344;6.152;2023-04-24T14:47:47;10.30;76.80
33271;DHT22;53180;51.344;6.152;2023-04-24T14:50:15;10.40;78.10
33271;DHT22;53180;51.344;6.152;2023-04-24T14:52:44;10.50;77.20
33271;DHT22;53180;51.344;6.152;2023-04-24T14:55:13;10.50;76.80
33271;DHT22;53180;51.344;6.152;2023-04-24T14:57:42;10.50;79.00
33271;DHT22;53180;51.344;6.152;2023-04-24T15:00:13;10.60;76.80
33271;DHT22;53180;51.344;6.152;2023-04-24T15:02:43;10.60;76.90
33271;DHT22;53180;51.344;6.152;2023-04-24T15:05:12;10.60;77.60
33271;DHT22;53180;51.344;6.152;2023-04-24T15:07:41;10.70;77.70
33271;DHT22;53180;51.344;6.152;2023-04-24T15:10:10;10.70;78.60
33271;DHT22;53180;51.344;6.152;2023-04-24T15:12:38;10.70;79.50
33271;DHT22;53180;51.344;6.152;2023-04-24T15:15:08;10.70;79.30
33271;DHT22;53180;51.344;6.152;2023-04-24T15:17:38;10.70;79.50
33271;DHT22;53180;51.344;6.152;2023-04-24T15:20:07;10.70;79.90
33271;DHT22;53180;51.344;6.152;2023-04-24T15:22:36;10.60;78.60
33271;DHT22;53180;51.344;6.152;2023-04-24T15:25:05;10.60;79.70
33271;DHT22;53180;51.344;6.152;2023-04-24T15:27:42;10.70;79.00
33271;DHT22;53180;51.344;6.152;2023-04-24T15:30:11;10.70;77.90
33271;DHT22;53180;51.344;6.152;2023-04-24T15:32:41;10.60;79.30
33271;DHT22;53180;51.344;6.152;2023-04-24T15:35:10;10.70;77.50
33271;DHT22;53180;51.344;6.152;2023-04-24T15:37:38;10.70;76.40
33271;DHT22;53180;51.344;6.152;2023-04-24T15:40:07;10.70;77.00
33271;DHT22;53180;51.344;6.152;2023-04-24T15:42:37;10.70;76.00
33271;DHT22;53180;51.344;6.152;2023-04-24T15:45:07;10.70;75.70
33271;DHT22;53180;51.344;6.152;2023-04-24T15:47:36;10.70;75.90
33271;DHT22;53180;51.344;6.152;2023-04-24T15:50:07;10.70;77.40
33271;DHT22;53180;51.344;6.152;2023-04-24T15:52:40;10.60;76.90
33271;DHT22;53180;51.344;6.152;2023-04-24T15:55:09;10.50;77.50
33271;DHT22;53180;51.344;6.152;2023-04-24T15:57:38;10.50;77.40
33271;DHT22;53180;51.344;6.152;2023-04-24T16:00:07;10.60;76.70
33271;DHT22;53180;51.344;6.152;2023-04-24T16:02:36;10.70;74.90
33271;DHT22;53180;51.344;6.152;2023-04-24T16:05:07;10.70;75.40
33271;DHT22;53180;51.344;6.152;2023-04-24T16:07:37;10.60;74.50
33271;DHT22;53180;51.344;6.152;2023-04-24T16:10:08;10.60;73.80
33271;DHT22;53180;51.344;6.152;2023-04-24T16:12:37;10.60;72.50
33271;DHT22;53180;51.344;6.152;2023-04-24T16:15:07;10.60;72.70
33271;DHT22;53180;51.344;6.152;2023-04-24T16:17:35;10.50;73.80
33271;DHT22;53180;51.344;6.152;2023-04-24T16:20:04;10.50;74.60
33271;DHT22;53180;51.344;6.152;2023-04-24T16:22:37;10.60;74.70
33271;DHT22;53180;51.344;6.152;2023-04-24T16:25:07;10.60;73.60
33271;DHT22;53180;51.344;6.152;2023-04-24T16:27:36;10.50;74.70
33271;DHT22;53180;51.344;6.152;2023-04-24T16:30:06;10.60;74.00
33271;DHT22;53180;51.344;6.152;2023-04-24T16:32:35;10.50;72.90
33271;DHT22;53180;51.344;6.152;2023-04-24T16:35:04;10.50;73.00
33271;DHT22;53180;51.344;6.152;2023-04-24T16:37:34;10.50;74.70
33271;DHT22;53180;51.344;6.152;2023-04-24T16:40:02;10.60;72.40
33271;DHT22;53180;51.344;6.152;2023-04-24T16:42:36;10.60;73.10
33271;DHT22;53180;51.344;6.152;2023-04-24T16:45:06;10.70;74.00
33271;DHT22;53180;51.344;6.152;2023-04-24T16:47:35;10.60;75.60
33271;DHT22;53180;51.344;6.152;2023-04-24T16:50:04;10.60;75.10
33271;DHT22;53180;51.344;6.152;2023-04-24T16:52:34;10.50;76.00
33271;DHT22;53180;51.344;6.152;2023-04-24T16:55:03;10.40;77.00
33271;DHT22;53180;51.344;6.152;2023-04-24T16:57:32;10.30;77.40
33271;DHT22;53180;51.344;6.152;2023-04-24T17:00:00;10.30;77.30
33271;DHT22;53180;51.344;6.152;2023-04-24T17:02:29;10.20;77.80
33271;DHT22;53180;51.344;6.152;2023-04-24T17:04:58;10.20;77.50